Union, KY

11:10 PM EDT on July 30, 2016 (GMT -0400)
APRSWXNET | | Change Station

Elev 908 ft 38.95 °N, 84.66 °W | Updated 22 minutes ago

Clear
Clear
74 °F
Feels Like 72 °F
N
0
Wind Variable Wind from SSW
Gusts 2.0 mph

Today
High -- | Low -- °F
--% Chance of Precip.
Yesterday
High -- | Low -- °F
Precip. -- in
Pressure 29.96 in
Visibility 10.0 miles
Clouds Clear
Heat Index 72 °F
Dew Point 71 °F
Humidity 90%
Rainfall in
Snow Depth Not available.
6:38 AM 8:51 PM
Waning Crescent, 9% visible
METAR KCVG 310252Z 21005KT 10SM CLR 24/22 A2999 RMK AO2 SLP146 T02390217 53013
Pressure 29.96 in
Visibility 10.0 miles
Clouds Clear
Heat Index 72 °F
Dew Point 71 °F
Humidity 90%
Rainfall in
Snow Depth Not available.
6:38 AM 8:51 PM
Waning Crescent, 9% visible
METAR KCVG 310252Z 21005KT 10SM CLR 24/22 A2999 RMK AO2 SLP146 T02390217 53013

10-Day Weather Forecast

Almanac

Astronomy

Jul. 30, 2016 Rise Set
Actual Time
Civil Twilight
Nautical Twilight
Astronomical Twilight
Moon
Length of Visible Light
Length of Day
Tomorrow will be .
, % of the Moon is Illuminated

Today's Extremes

State Highs State Lows

Community

WunderPhotos

Upload Photos

1,928,725 photos uploaded!

WunderBlog® & News

Nearby

Air Quality

  Air Quality AQ Index Pollutant
Not available.

Snow Depth

Station Depth Elevation

Earthquake Activity

City Distance Mag. Time & Date
Minimum magnitude displayed is 2.5.

Coastal Water Temperatures

Place Temperature

Stations

Nearby Weather Stations

Station Location Temp. Windchill Dew Point Humidity Wind Precip. Elev Updated Type
                   

Watches & Warnings

There are currently no watches in effect.